Observations for BARCELONA AIRPORT, Spain (LEBL)

LEBL 230230Z 05009KT 9999 FEW022 25/21 Q1017 NOSIG  
LEBL 230200Z 35004KT 9999 FEW022 25/20 Q1017 NOSIG  
LEBL 230130Z 34002KT 9999 FEW020 25/20 Q1017 NOSIG  
LEBL 230100Z VRB02KT 9999 FEW020 SCT024 25/20 Q1017 NOSIG   
LEBL 230030Z VRB01KT 9999 FEW018 SCT024 25/21 Q1016 NOSIG   
LEBL 230000Z VRB02KT 9999 FEW018 26/23 Q1016 NOSIG  
LEBL 222330Z 28003KT 230V330 9999 FEW018 26/22 Q1016 NOSIG  
LEBL 222300Z 26004KT 230V290 9999 FEW018 26/22 Q1016 NOSIG  
LEBL 222230Z 26004KT 9999 FEW018 26/23 Q1016 NOSIG  
LEBL 222200Z 23005KT 9999 FEW018 26/23 Q1016 NOSIG  
LEBL 222130Z 21007KT 9999 FEW018 26/23 Q1016 NOSIG  
LEBL 222100Z 21006KT 9999 FEW018 26/23 Q1016 NOSIG  
LEBL 222030Z 21007KT 9999 FEW018 26/22 Q1015 NOSIG  
LEBL 222000Z 21006KT 9999 FEW018 27/22 Q1015 NOSIG  
LEBL 221930Z 22006KT 9999 FEW018 26/23 Q1014 NOSIG  
LEBL 221900Z 23009KT 9999 FEW020 27/23 Q1014 NOSIG  
LEBL 221830Z 22009KT CAVOK 27/22 Q1014 NOSIG
LEBL 221800Z 22011KT CAVOK 27/23 Q1013 NOSIG
LEBL 221730Z 21010KT 9999 FEW030 27/22 Q1013 NOSIG  
LEBL 221700Z 21011KT 9999 FEW030 28/23 Q1013 NOSIG  
LEBL 221630Z 23011KT 9999 FEW030 28/22 Q1013 NOSIG  
LEBL 221600Z 21012KT CAVOK 28/22 Q1014 NOSIG
LEBL 221530Z 21010KT 160V240 9999 FEW025 28/22 Q1014 NOSIG  
LEBL 221500Z 20010KT 160V240 9999 FEW025 28/22 Q1014 NOSIG  
LEBL 221430Z 20010KT 160V230 9999 FEW025 28/21 Q1014 NOSIG  
LEBL 221400Z 19009KT 160V230 9999 FEW025 28/21 Q1014 NOSIG  
LEBL 221330Z 17009KT 130V200 9999 FEW020 28/21 Q1014 NOSIG  
LEBL 221300Z 18009KT 150V220 9999 FEW020 28/22 Q1014 NOSIG  
LEBL 221230Z 17007KT 120V220 9999 FEW020 27/21 Q1015 NOSIG  
LEBL 221200Z 17006KT 130V260 9999 FEW020 27/21 Q1015 NOSIG  
LEBL 221130Z 14007KT 090V200 9999 FEW020 SCT042 27/21 Q1015 NOSIG   
LEBL 221100Z 14008KT 110V170 9999 SCT037 26/20 Q1015 NOSIG  
LEBL 221030Z 12011KT 9999 SCT040 26/20 Q1015 NOSIG  
LEBL 221000Z 12010KT 100V170 9999 SCT040 27/21 Q1015 NOSIG  
LEBL 220930Z 11009KT 070V130 9999 FEW020 SCT030 27/21 Q1014 NOSIG   
LEBL 220900Z 08006KT 020V110 9999 FEW020 SCT030 26/21 Q1014 NOSIG   
LEBL 220830Z 10007KT 9999 FEW016 27/21 Q1014 NOSIG  
LEBL 220800Z 08008KT 040V110 9999 FEW016 26/21 Q1014 NOSIG  
LEBL 220730Z 06008KT 030V090 9999 FEW016 26/22 Q1014 NOSIG  
LEBL 220700Z 01006KT 9999 FEW018 25/20 Q1014 NOSIG  
LEBL 220630Z 34006KT 9999 FEW020 24/19 Q1014 NOSIG  
LEBL 220600Z 33006KT 290V350 9999 FEW020 23/19 Q1014 NOSIG  
LEBL 220530Z 34005KT 240V010 CAVOK 23/19 Q1013 NOSIG
LEBL 220500Z 34006KT CAVOK 22/19 Q1013 NOSIG
LEBL 220430Z 33007KT CAVOK 22/19 Q1013 NOSIG
LEBL 220400Z 33007KT CAVOK 22/19 Q1013 NOSIG
LEBL 220330Z 33006KT CAVOK 22/19 Q1013 NOSIG
LEBL 220300Z 33004KT CAVOK 23/20 Q1013 NOSIG
LEBL 220230Z VRB02KT CAVOK 23/20 Q1013 NOSIG
LEBL 220200Z 32005KT CAVOK 23/20 Q1013 NOSIG